sensor_id;sensor_type;location;lat;lon;timestamp;temperature;humidity
17066;DHT22;23120;52.336;21.182;2022-12-29T00:00:22;4.80;95.80
17066;DHT22;23120;52.336;21.182;2022-12-29T00:02:49;4.80;95.70
17066;DHT22;23120;52.336;21.182;2022-12-29T00:05:16;4.80;96.10
17066;DHT22;23120;52.336;21.182;2022-12-29T00:07:43;4.80;95.90
17066;DHT22;23120;52.336;21.182;2022-12-29T00:10:11;4.80;96.00
17066;DHT22;23120;52.336;21.182;2022-12-29T00:12:38;4.80;96.10
17066;DHT22;23120;52.336;21.182;2022-12-29T00:15:23;4.80;96.20
17066;DHT22;23120;52.336;21.182;2022-12-29T00:18:05;4.80;96.10
17066;DHT22;23120;52.336;21.182;2022-12-29T00:20:33;4.80;96.20
17066;DHT22;23120;52.336;21.182;2022-12-29T00:23:18;4.80;96.20
17066;DHT22;23120;52.336;21.182;2022-12-29T00:26:05;4.80;96.20
17066;DHT22;23120;52.336;21.182;2022-12-29T00:28:56;4.80;96.20
17066;DHT22;23120;52.336;21.182;2022-12-29T00:31:40;4.80;96.10
17066;DHT22;23120;52.336;21.182;2022-12-29T00:34:24;4.80;96.10
17066;DHT22;23120;52.336;21.182;2022-12-29T00:37:10;4.90;96.10
17066;DHT22;23120;52.336;21.182;2022-12-29T00:39:36;4.80;96.10
17066;DHT22;23120;52.336;21.182;2022-12-29T00:42:22;4.80;96.10
17066;DHT22;23120;52.336;21.182;2022-12-29T00:45:07;4.90;96.00
17066;DHT22;23120;52.336;21.182;2022-12-29T00:47:34;4.90;96.10
17066;DHT22;23120;52.336;21.182;2022-12-29T00:50:01;4.80;96.00
17066;DHT22;23120;52.336;21.182;2022-12-29T00:52:27;4.90;96.10
17066;DHT22;23120;52.336;21.182;2022-12-29T00:54:54;4.80;96.20
17066;DHT22;23120;52.336;21.182;2022-12-29T00:57:22;4.90;96.30
17066;DHT22;23120;52.336;21.182;2022-12-29T00:59:49;4.80;96.20
17066;DHT22;23120;52.336;21.182;2022-12-29T01:02:15;4.90;96.30
17066;DHT22;23120;52.336;21.182;2022-12-29T01:04:42;4.80;96.20
17066;DHT22;23120;52.336;21.182;2022-12-29T01:07:09;4.90;96.10
17066;DHT22;23120;52.336;21.182;2022-12-29T01:09:36;4.90;96.20
17066;DHT22;23120;52.336;21.182;2022-12-29T01:12:22;4.90;96.10
17066;DHT22;23120;52.336;21.182;2022-12-29T01:15:04;4.80;96.00
17066;DHT22;23120;52.336;21.182;2022-12-29T01:17:31;4.90;96.00
17066;DHT22;23120;52.336;21.182;2022-12-29T01:19:57;4.90;96.10
17066;DHT22;23120;52.336;21.182;2022-12-29T01:22:24;4.90;95.90
17066;DHT22;23120;52.336;21.182;2022-12-29T01:24:51;4.90;96.00
17066;DHT22;23120;52.336;21.182;2022-12-29T01:27:18;4.90;96.10
17066;DHT22;23120;52.336;21.182;2022-12-29T01:29:46;4.90;95.90
17066;DHT22;23120;52.336;21.182;2022-12-29T01:32:13;4.90;95.70
17066;DHT22;23120;52.336;21.182;2022-12-29T01:34:40;4.90;95.60
17066;DHT22;23120;52.336;21.182;2022-12-29T01:37:07;4.90;95.60
17066;DHT22;23120;52.336;21.182;2022-12-29T01:39:34;4.90;95.90
17066;DHT22;23120;52.336;21.182;2022-12-29T01:42:00;4.90;95.70
17066;DHT22;23120;52.336;21.182;2022-12-29T01:44:50;4.90;95.40
17066;DHT22;23120;52.336;21.182;2022-12-29T01:47:23;4.90;95.40
17066;DHT22;23120;52.336;21.182;2022-12-29T01:49:54;4.90;95.20
17066;DHT22;23120;52.336;21.182;2022-12-29T01:52:23;4.90;95.10
17066;DHT22;23120;52.336;21.182;2022-12-29T01:54:52;4.90;95.20
17066;DHT22;23120;52.336;21.182;2022-12-29T01:57:24;4.90;95.20
17066;DHT22;23120;52.336;21.182;2022-12-29T01:59:57;4.90;95.40
17066;DHT22;23120;52.336;21.182;2022-12-29T02:02:24;4.90;95.30
17066;DHT22;23120;52.336;21.182;2022-12-29T02:04:52;4.90;95.50
17066;DHT22;23120;52.336;21.182;2022-12-29T02:07:22;4.90;95.60
17066;DHT22;23120;52.336;21.182;2022-12-29T02:09:53;4.90;95.70
17066;DHT22;23120;52.336;21.182;2022-12-29T02:12:21;4.90;95.70
17066;DHT22;23120;52.336;21.182;2022-12-29T02:14:55;4.90;95.70
17066;DHT22;23120;52.336;21.182;2022-12-29T02:17:38;4.90;95.80
17066;DHT22;23120;52.336;21.182;2022-12-29T02:20:52;4.90;95.80
17066;DHT22;23120;52.336;21.182;2022-12-29T02:23:40;4.90;96.10
17066;DHT22;23120;52.336;21.182;2022-12-29T02:26:38;4.90;95.80
17066;DHT22;23120;52.336;21.182;2022-12-29T02:29:39;4.90;95.70
17066;DHT22;23120;52.336;21.182;2022-12-29T02:32:13;4.90;95.50
17066;DHT22;23120;52.336;21.182;2022-12-29T02:34:49;4.90;95.30
17066;DHT22;23120;52.336;21.182;2022-12-29T02:37:21;4.90;95.30
17066;DHT22;23120;52.336;21.182;2022-12-29T02:39:55;4.90;95.40
17066;DHT22;23120;52.336;21.182;2022-12-29T02:42:30;4.90;95.40
17066;DHT22;23120;52.336;21.182;2022-12-29T02:45:04;4.90;95.60
17066;DHT22;23120;52.336;21.182;2022-12-29T02:47:37;4.90;95.60
17066;DHT22;23120;52.336;21.182;2022-12-29T02:50:14;4.90;95.50
17066;DHT22;23120;52.336;21.182;2022-12-29T02:52:45;4.90;95.50
17066;DHT22;23120;52.336;21.182;2022-12-29T02:55:14;4.80;95.60
17066;DHT22;23120;52.336;21.182;2022-12-29T02:57:41;4.80;95.70
17066;DHT22;23120;52.336;21.182;2022-12-29T03:00:10;4.80;95.70
17066;DHT22;23120;52.336;21.182;2022-12-29T03:02:51;4.80;95.70
17066;DHT22;23120;52.336;21.182;2022-12-29T03:05:41;4.80;95.70
17066;DHT22;23120;52.336;21.182;2022-12-29T03:08:22;4.80;95.70
17066;DHT22;23120;52.336;21.182;2022-12-29T03:10:55;4.80;95.70
17066;DHT22;23120;52.336;21.182;2022-12-29T03:13:29;4.80;96.00
17066;DHT22;23120;52.336;21.182;2022-12-29T03:16:21;4.80;95.70
17066;DHT22;23120;52.336;21.182;2022-12-29T03:18:56;4.70;95.70
17066;DHT22;23120;52.336;21.182;2022-12-29T03:21:29;4.70;95.80
17066;DHT22;23120;52.336;21.182;2022-12-29T03:24:15;4.70;95.90
17066;DHT22;23120;52.336;21.182;2022-12-29T03:26:43;4.70;96.00
17066;DHT22;23120;52.336;21.182;2022-12-29T03:29:14;4.70;96.00
17066;DHT22;23120;52.336;21.182;2022-12-29T03:31:43;4.70;96.00
17066;DHT22;23120;52.336;21.182;2022-12-29T03:34:13;4.70;96.20
17066;DHT22;23120;52.336;21.182;2022-12-29T03:36:48;4.60;96.30
17066;DHT22;23120;52.336;21.182;2022-12-29T03:39:16;4.60;96.40
17066;DHT22;23120;52.336;21.182;2022-12-29T03:41:45;4.60;96.40
17066;DHT22;23120;52.336;21.182;2022-12-29T03:44:13;4.50;96.60
17066;DHT22;23120;52.336;21.182;2022-12-29T03:46:40;4.50;96.70
17066;DHT22;23120;52.336;21.182;2022-12-29T03:49:07;4.50;96.90
17066;DHT22;23120;52.336;21.182;2022-12-29T03:51:35;4.50;96.80
17066;DHT22;23120;52.336;21.182;2022-12-29T03:54:04;4.50;96.90
17066;DHT22;23120;52.336;21.182;2022-12-29T03:56:32;4.40;96.90
17066;DHT22;23120;52.336;21.182;2022-12-29T03:58:58;4.40;96.80
17066;DHT22;23120;52.336;21.182;2022-12-29T04:01:30;4.40;97.00
17066;DHT22;23120;52.336;21.182;2022-12-29T04:03:57;4.40;97.10
17066;DHT22;23120;52.336;21.182;2022-12-29T04:06:24;4.40;97.10
17066;DHT22;23120;52.336;21.182;2022-12-29T04:09:02;4.40;97.10
17066;DHT22;23120;52.336;21.182;2022-12-29T04:11:32;4.40;97.10
17066;DHT22;23120;52.336;21.182;2022-12-29T04:14:01;4.40;97.10
17066;DHT22;23120;52.336;21.182;2022-12-29T04:16:29;4.30;97.20
17066;DHT22;23120;52.336;21.182;2022-12-29T04:18:56;4.30;97.20
17066;DHT22;23120;52.336;21.182;2022-12-29T04:21:23;4.30;97.10
17066;DHT22;23120;52.336;21.182;2022-12-29T04:23:50;4.30;97.10
17066;DHT22;23120;52.336;21.182;2022-12-29T04:26:18;4.30;97.00
17066;DHT22;23120;52.336;21.182;2022-12-29T04:29:04;4.30;97.00
17066;DHT22;23120;52.336;21.182;2022-12-29T04:31:39;4.20;97.00
17066;DHT22;23120;52.336;21.182;2022-12-29T04:34:06;4.30;97.40
17066;DHT22;23120;52.336;21.182;2022-12-29T04:36:33;4.30;97.00
17066;DHT22;23120;52.336;21.182;2022-12-29T04:39:00;4.20;97.00
17066;DHT22;23120;52.336;21.182;2022-12-29T04:41:29;4.20;97.10
17066;DHT22;23120;52.336;21.182;2022-12-29T04:43:56;4.20;97.10
17066;DHT22;23120;52.336;21.182;2022-12-29T04:46:40;4.10;97.10
17066;DHT22;23120;52.336;21.182;2022-12-29T04:49:10;4.10;97.20
17066;DHT22;23120;52.336;21.182;2022-12-29T04:51:51;4.10;97.20
17066;DHT22;23120;52.336;21.182;2022-12-29T04:54:19;4.10;97.10
17066;DHT22;23120;52.336;21.182;2022-12-29T04:56:57;4.10;97.10
17066;DHT22;23120;52.336;21.182;2022-12-29T04:59:24;4.10;97.00
17066;DHT22;23120;52.336;21.182;2022-12-29T05:01:54;4.10;97.00
17066;DHT22;23120;52.336;21.182;2022-12-29T05:04:21;4.10;97.00
17066;DHT22;23120;52.336;21.182;2022-12-29T05:06:48;4.00;97.00
17066;DHT22;23120;52.336;21.182;2022-12-29T05:09:15;4.00;97.00
17066;DHT22;23120;52.336;21.182;2022-12-29T05:11:44;3.90;97.00
17066;DHT22;23120;52.336;21.182;2022-12-29T05:14:12;3.90;97.10
17066;DHT22;23120;52.336;21.182;2022-12-29T05:16:39;3.90;97.10
17066;DHT22;23120;52.336;21.182;2022-12-29T05:19:06;3.90;97.10
17066;DHT22;23120;52.336;21.182;2022-12-29T05:21:33;3.90;97.10
17066;DHT22;23120;52.336;21.182;2022-12-29T05:24:00;4.00;97.10
17066;DHT22;23120;52.336;21.182;2022-12-29T05:26:28;3.90;97.00
17066;DHT22;23120;52.336;21.182;2022-12-29T05:29:03;3.90;97.00
17066;DHT22;23120;52.336;21.182;2022-12-29T05:31:33;3.80;96.90
17066;DHT22;23120;52.336;21.182;2022-12-29T05:34:02;3.80;96.90
17066;DHT22;23120;52.336;21.182;2022-12-29T05:36:30;3.80;97.00
17066;DHT22;23120;52.336;21.182;2022-12-29T05:39:00;3.80;97.00
17066;DHT22;23120;52.336;21.182;2022-12-29T05:41:27;3.80;97.00
17066;DHT22;23120;52.336;21.182;2022-12-29T05:44:07;3.80;97.00
17066;DHT22;23120;52.336;21.182;2022-12-29T05:46:45;3.70;97.00
17066;DHT22;23120;52.336;21.182;2022-12-29T05:49:19;3.70;97.00
17066;DHT22;23120;52.336;21.182;2022-12-29T05:55:12;3.70;97.00
17066;DHT22;23120;52.336;21.182;2022-12-29T05:57:41;3.70;97.00
17066;DHT22;23120;52.336;21.182;2022-12-29T06:00:15;3.60;96.90
17066;DHT22;23120;52.336;21.182;2022-12-29T06:02:44;3.60;96.90
17066;DHT22;23120;52.336;21.182;2022-12-29T06:05:12;3.60;96.90
17066;DHT22;23120;52.336;21.182;2022-12-29T06:07:39;3.60;96.80
17066;DHT22;23120;52.336;21.182;2022-12-29T06:10:07;3.60;96.90
17066;DHT22;23120;52.336;21.182;2022-12-29T06:12:48;3.60;96.90
17066;DHT22;23120;52.336;21.182;2022-12-29T06:15:16;3.60;96.90
17066;DHT22;23120;52.336;21.182;2022-12-29T06:17:47;3.60;96.90
17066;DHT22;23120;52.336;21.182;2022-12-29T06:20:14;3.50;96.80
17066;DHT22;23120;52.336;21.182;2022-12-29T06:22:42;3.50;96.80
17066;DHT22;23120;52.336;21.182;2022-12-29T06:25:12;3.50;96.80
17066;DHT22;23120;52.336;21.182;2022-12-29T06:27:40;3.50;96.80
17066;DHT22;23120;52.336;21.182;2022-12-29T06:30:09;3.50;96.90
17066;DHT22;23120;52.336;21.182;2022-12-29T06:32:38;3.50;96.80
17066;DHT22;23120;52.336;21.182;2022-12-29T06:35:10;3.50;96.90
17066;DHT22;23120;52.336;21.182;2022-12-29T06:37:43;3.50;96.90
17066;DHT22;23120;52.336;21.182;2022-12-29T06:40:11;3.50;96.90
17066;DHT22;23120;52.336;21.182;2022-12-29T06:42:57;3.50;96.90
17066;DHT22;23120;52.336;21.182;2022-12-29T06:45:38;3.50;96.90
17066;DHT22;23120;52.336;21.182;2022-12-29T06:48:06;3.50;97.00
17066;DHT22;23120;52.336;21.182;2022-12-29T06:50:34;3.50;97.00
17066;DHT22;23120;52.336;21.182;2022-12-29T06:53:02;3.50;96.90
17066;DHT22;23120;52.336;21.182;2022-12-29T06:55:29;3.50;96.90
17066;DHT22;23120;52.336;21.182;2022-12-29T06:57:56;3.50;96.80
17066;DHT22;23120;52.336;21.182;2022-12-29T07:00:24;3.50;96.80
17066;DHT22;23120;52.336;21.182;2022-12-29T07:02:54;3.50;96.80
17066;DHT22;23120;52.336;21.182;2022-12-29T07:05:21;3.50;96.90
17066;DHT22;23120;52.336;21.182;2022-12-29T07:07:50;3.50;96.90
17066;DHT22;23120;52.336;21.182;2022-12-29T07:10:17;3.50;96.90
17066;DHT22;23120;52.336;21.182;2022-12-29T07:12:45;3.50;96.90
17066;DHT22;23120;52.336;21.182;2022-12-29T07:15:12;3.50;96.90
17066;DHT22;23120;52.336;21.182;2022-12-29T07:17:39;3.50;96.90
17066;DHT22;23120;52.336;21.182;2022-12-29T07:20:08;3.50;96.80
17066;DHT22;23120;52.336;21.182;2022-12-29T07:22:35;3.50;96.90
17066;DHT22;23120;52.336;21.182;2022-12-29T07:25:04;3.50;96.90
17066;DHT22;23120;52.336;21.182;2022-12-29T07:27:31;3.50;96.90
17066;DHT22;23120;52.336;21.182;2022-12-29T07:29:58;3.50;96.90
17066;DHT22;23120;52.336;21.182;2022-12-29T07:32:25;3.50;96.80
17066;DHT22;23120;52.336;21.182;2022-12-29T07:34:53;3.50;96.80
17066;DHT22;23120;52.336;21.182;2022-12-29T07:37:20;3.60;96.80
17066;DHT22;23120;52.336;21.182;2022-12-29T07:39:47;3.60;96.70
17066;DHT22;23120;52.336;21.182;2022-12-29T07:42:15;3.60;96.70
17066;DHT22;23120;52.336;21.182;2022-12-29T07:44:49;3.60;96.70
17066;DHT22;23120;52.336;21.182;2022-12-29T07:47:21;3.60;96.60
17066;DHT22;23120;52.336;21.182;2022-12-29T07:49:49;3.70;96.60
17066;DHT22;23120;52.336;21.182;2022-12-29T07:52:17;3.70;96.60
17066;DHT22;23120;52.336;21.182;2022-12-29T07:54:44;3.70;96.60
17066;DHT22;23120;52.336;21.182;2022-12-29T07:57:11;3.70;96.50
17066;DHT22;23120;52.336;21.182;2022-12-29T07:59:40;3.70;96.50
17066;DHT22;23120;52.336;21.182;2022-12-29T08:02:09;3.70;96.50
17066;DHT22;23120;52.336;21.182;2022-12-29T08:04:36;3.70;96.50
17066;DHT22;23120;52.336;21.182;2022-12-29T08:07:03;3.80;96.60
17066;DHT22;23120;52.336;21.182;2022-12-29T08:09:30;3.80;96.50
17066;DHT22;23120;52.336;21.182;2022-12-29T08:11:56;3.80;96.50
17066;DHT22;23120;52.336;21.182;2022-12-29T08:14:23;3.80;96.50
17066;DHT22;23120;52.336;21.182;2022-12-29T08:16:51;3.90;96.60
17066;DHT22;23120;52.336;21.182;2022-12-29T08:19:18;3.80;96.50
17066;DHT22;23120;52.336;21.182;2022-12-29T08:21:45;3.90;96.60
17066;DHT22;23120;52.336;21.182;2022-12-29T08:24:12;3.80;96.50
17066;DHT22;23120;52.336;21.182;2022-12-29T08:26:39;3.90;96.60
17066;DHT22;23120;52.336;21.182;2022-12-29T08:29:06;4.00;96.60
17066;DHT22;23120;52.336;21.182;2022-12-29T08:31:33;3.90;96.60
17066;DHT22;23120;52.336;21.182;2022-12-29T08:34:01;4.00;96.60
17066;DHT22;23120;52.336;21.182;2022-12-29T08:36:28;4.00;96.60
17066;DHT22;23120;52.336;21.182;2022-12-29T08:38:55;4.00;96.60
17066;DHT22;23120;52.336;21.182;2022-12-29T08:41:22;4.10;96.80
17066;DHT22;23120;52.336;21.182;2022-12-29T08:43:50;4.10;96.40
17066;DHT22;23120;52.336;21.182;2022-12-29T08:46:17;4.20;96.40
17066;DHT22;23120;52.336;21.182;2022-12-29T08:48:45;4.10;96.40
17066;DHT22;23120;52.336;21.182;2022-12-29T08:51:13;4.20;96.40
17066;DHT22;23120;52.336;21.182;2022-12-29T08:53:40;4.20;96.40
17066;DHT22;23120;52.336;21.182;2022-12-29T08:56:08;4.30;96.40
17066;DHT22;23120;52.336;21.182;2022-12-29T08:58:45;4.30;96.30
17066;DHT22;23120;52.336;21.182;2022-12-29T09:01:12;4.30;96.10
17066;DHT22;23120;52.336;21.182;2022-12-29T09:03:39;4.40;96.50
17066;DHT22;23120;52.336;21.182;2022-12-29T09:06:06;4.40;96.30
17066;DHT22;23120;52.336;21.182;2022-12-29T09:08:34;4.50;96.40
17066;DHT22;23120;52.336;21.182;2022-12-29T09:11:07;4.50;96.40
17066;DHT22;23120;52.336;21.182;2022-12-29T09:13:35;4.60;96.40
17066;DHT22;23120;52.336;21.182;2022-12-29T09:16:02;4.60;96.20
17066;DHT22;23120;52.336;21.182;2022-12-29T09:18:29;4.70;96.20
17066;DHT22;23120;52.336;21.182;2022-12-29T09:20:57;4.70;96.20
17066;DHT22;23120;52.336;21.182;2022-12-29T09:23:24;4.70;96.20
17066;DHT22;23120;52.336;21.182;2022-12-29T09:25:53;4.70;96.20
17066;DHT22;23120;52.336;21.182;2022-12-29T09:28:20;4.80;96.20
17066;DHT22;23120;52.336;21.182;2022-12-29T09:30:47;4.80;96.20
17066;DHT22;23120;52.336;21.182;2022-12-29T09:33:15;4.90;96.20
17066;DHT22;23120;52.336;21.182;2022-12-29T09:35:42;4.90;96.20
17066;DHT22;23120;52.336;21.182;2022-12-29T09:38:09;4.90;96.30
17066;DHT22;23120;52.336;21.182;2022-12-29T09:40:38;4.90;96.30
17066;DHT22;23120;52.336;21.182;2022-12-29T09:43:20;5.00;96.30
17066;DHT22;23120;52.336;21.182;2022-12-29T09:45:54;5.00;96.00
17066;DHT22;23120;52.336;21.182;2022-12-29T09:48:25;5.00;96.00
17066;DHT22;23120;52.336;21.182;2022-12-29T09:50:55;5.10;95.90
17066;DHT22;23120;52.336;21.182;2022-12-29T09:53:27;5.10;95.80
17066;DHT22;23120;52.336;21.182;2022-12-29T09:55:58;5.10;96.10
17066;DHT22;23120;52.336;21.182;2022-12-29T09:58:32;5.20;95.90
17066;DHT22;23120;52.336;21.182;2022-12-29T10:01:03;5.20;95.90
17066;DHT22;23120;52.336;21.182;2022-12-29T10:03:40;5.20;95.90
17066;DHT22;23120;52.336;21.182;2022-12-29T10:06:11;5.20;95.50
17066;DHT22;23120;52.336;21.182;2022-12-29T10:08:42;5.30;95.50
17066;DHT22;23120;52.336;21.182;2022-12-29T10:11:19;5.30;95.60
17066;DHT22;23120;52.336;21.182;2022-12-29T10:14:00;5.40;95.50
17066;DHT22;23120;52.336;21.182;2022-12-29T10:16:37;5.40;95.00
17066;DHT22;23120;52.336;21.182;2022-12-29T10:19:20;5.50;95.00
17066;DHT22;23120;52.336;21.182;2022-12-29T10:21:59;5.50;95.10
17066;DHT22;23120;52.336;21.182;2022-12-29T10:24:31;5.60;94.90
17066;DHT22;23120;52.336;21.182;2022-12-29T10:27:01;5.60;94.70
17066;DHT22;23120;52.336;21.182;2022-12-29T10:29:33;5.60;94.80
17066;DHT22;23120;52.336;21.182;2022-12-29T10:32:05;5.60;94.80
17066;DHT22;23120;52.336;21.182;2022-12-29T10:34:36;5.70;94.60
17066;DHT22;23120;52.336;21.182;2022-12-29T10:37:09;5.70;93.50
17066;DHT22;23120;52.336;21.182;2022-12-29T10:39:42;5.80;91.50
17066;DHT22;23120;52.336;21.182;2022-12-29T10:42:14;5.90;92.20
17066;DHT22;23120;52.336;21.182;2022-12-29T10:44:43;5.90;92.60
17066;DHT22;23120;52.336;21.182;2022-12-29T10:47:13;6.00;91.60
17066;DHT22;23120;52.336;21.182;2022-12-29T10:49:43;6.10;90.90
17066;DHT22;23120;52.336;21.182;2022-12-29T10:52:12;6.20;90.90
17066;DHT22;23120;52.336;21.182;2022-12-29T10:54:45;6.20;90.90
17066;DHT22;23120;52.336;21.182;2022-12-29T10:57:20;6.30;91.40
17066;DHT22;23120;52.336;21.182;2022-12-29T10:59:51;6.30;91.40
17066;DHT22;23120;52.336;21.182;2022-12-29T11:02:47;6.40;91.50
17066;DHT22;23120;52.336;21.182;2022-12-29T11:05:23;6.50;90.20
17066;DHT22;23120;52.336;21.182;2022-12-29T11:07:59;6.50;90.20
17066;DHT22;23120;52.336;21.182;2022-12-29T11:10:35;6.50;89.90
17066;DHT22;23120;52.336;21.182;2022-12-29T11:13:11;6.60;90.50
17066;DHT22;23120;52.336;21.182;2022-12-29T11:15:41;6.60;90.40
17066;DHT22;23120;52.336;21.182;2022-12-29T11:18:19;6.70;90.40
17066;DHT22;23120;52.336;21.182;2022-12-29T11:20:47;6.70;90.60
17066;DHT22;23120;52.336;21.182;2022-12-29T11:23:24;6.70;89.90
17066;DHT22;23120;52.336;21.182;2022-12-29T11:26:07;6.80;90.30
17066;DHT22;23120;52.336;21.182;2022-12-29T11:28:34;6.80;88.90
17066;DHT22;23120;52.336;21.182;2022-12-29T11:31:04;6.80;89.60
17066;DHT22;23120;52.336;21.182;2022-12-29T11:33:33;6.80;89.40
17066;DHT22;23120;52.336;21.182;2022-12-29T11:36:04;6.90;87.50
17066;DHT22;23120;52.336;21.182;2022-12-29T11:38:34;6.90;87.80
17066;DHT22;23120;52.336;21.182;2022-12-29T11:41:02;6.90;88.70
17066;DHT22;23120;52.336;21.182;2022-12-29T11:43:31;7.00;90.00
17066;DHT22;23120;52.336;21.182;2022-12-29T11:45:59;7.00;89.60
17066;DHT22;23120;52.336;21.182;2022-12-29T11:48:33;7.00;87.60
17066;DHT22;23120;52.336;21.182;2022-12-29T11:51:05;7.00;87.10
17066;DHT22;23120;52.336;21.182;2022-12-29T11:53:37;7.10;88.60
17066;DHT22;23120;52.336;21.182;2022-12-29T11:56:08;7.00;89.50
17066;DHT22;23120;52.336;21.182;2022-12-29T11:58:37;7.10;87.80
17066;DHT22;23120;52.336;21.182;2022-12-29T12:01:06;7.10;88.70
17066;DHT22;23120;52.336;21.182;2022-12-29T12:03:37;7.10;87.60
17066;DHT22;23120;52.336;21.182;2022-12-29T12:06:11;7.10;88.70
17066;DHT22;23120;52.336;21.182;2022-12-29T12:08:43;7.10;89.00
17066;DHT22;23120;52.336;21.182;2022-12-29T12:11:14;7.10;89.30
17066;DHT22;23120;52.336;21.182;2022-12-29T12:13:46;7.10;86.70
17066;DHT22;23120;52.336;21.182;2022-12-29T12:16:19;7.10;89.10
17066;DHT22;23120;52.336;21.182;2022-12-29T12:18:54;7.10;88.70
17066;DHT22;23120;52.336;21.182;2022-12-29T12:21:25;7.10;88.30
17066;DHT22;23120;52.336;21.182;2022-12-29T12:24:10;7.20;87.70
17066;DHT22;23120;52.336;21.182;2022-12-29T12:26:53;7.30;88.00
17066;DHT22;23120;52.336;21.182;2022-12-29T12:29:25;7.20;87.90
17066;DHT22;23120;52.336;21.182;2022-12-29T12:31:57;7.20;89.10
17066;DHT22;23120;52.336;21.182;2022-12-29T12:34:31;7.30;87.70
17066;DHT22;23120;52.336;21.182;2022-12-29T12:40:19;7.30;87.90
17066;DHT22;23120;52.336;21.182;2022-12-29T12:42:58;7.30;89.40
17066;DHT22;23120;52.336;21.182;2022-12-29T12:45:42;7.30;89.30
17066;DHT22;23120;52.336;21.182;2022-12-29T12:48:27;7.30;87.40
17066;DHT22;23120;52.336;21.182;2022-12-29T12:51:06;7.40;88.80
17066;DHT22;23120;52.336;21.182;2022-12-29T12:53:49;7.40;88.10
17066;DHT22;23120;52.336;21.182;2022-12-29T12:56:32;7.40;88.80
17066;DHT22;23120;52.336;21.182;2022-12-29T12:59:10;7.30;90.10
17066;DHT22;23120;52.336;21.182;2022-12-29T13:01:47;7.30;90.40
17066;DHT22;23120;52.336;21.182;2022-12-29T13:04:52;7.30;91.00
17066;DHT22;23120;52.336;21.182;2022-12-29T13:07:32;7.30;91.30
17066;DHT22;23120;52.336;21.182;2022-12-29T13:10:26;7.30;91.60
17066;DHT22;23120;52.336;21.182;2022-12-29T13:13:14;7.30;92.10
17066;DHT22;23120;52.336;21.182;2022-12-29T13:15:48;7.30;92.20
17066;DHT22;23120;52.336;21.182;2022-12-29T13:18:27;7.20;92.40
17066;DHT22;23120;52.336;21.182;2022-12-29T13:21:02;7.20;92.50
17066;DHT22;23120;52.336;21.182;2022-12-29T13:23:37;7.20;92.60
17066;DHT22;23120;52.336;21.182;2022-12-29T13:26:14;7.20;92.80
17066;DHT22;23120;52.336;21.182;2022-12-29T13:28:53;7.20;93.00
17066;DHT22;23120;52.336;21.182;2022-12-29T13:31:28;7.20;93.10
17066;DHT22;23120;52.336;21.182;2022-12-29T13:34:00;7.20;93.30
17066;DHT22;23120;52.336;21.182;2022-12-29T13:36:37;7.20;93.40
17066;DHT22;23120;52.336;21.182;2022-12-29T13:39:21;7.20;93.50
17066;DHT22;23120;52.336;21.182;2022-12-29T13:41:51;7.20;93.60
17066;DHT22;23120;52.336;21.182;2022-12-29T13:44:22;7.20;93.60
17066;DHT22;23120;52.336;21.182;2022-12-29T13:46:50;7.20;93.60
17066;DHT22;23120;52.336;21.182;2022-12-29T13:49:19;7.20;93.80
17066;DHT22;23120;52.336;21.182;2022-12-29T13:51:49;7.20;93.80
17066;DHT22;23120;52.336;21.182;2022-12-29T13:54:34;7.20;93.90
17066;DHT22;23120;52.336;21.182;2022-12-29T13:57:08;7.20;94.00
17066;DHT22;23120;52.336;21.182;2022-12-29T13:59:44;7.10;94.00
17066;DHT22;23120;52.336;21.182;2022-12-29T14:02:24;7.10;94.00
17066;DHT22;23120;52.336;21.182;2022-12-29T14:04:59;7.10;94.10
17066;DHT22;23120;52.336;21.182;2022-12-29T14:07:27;7.10;94.10
17066;DHT22;23120;52.336;21.182;2022-12-29T14:09:57;7.10;94.10
17066;DHT22;23120;52.336;21.182;2022-12-29T14:12:36;7.10;94.40
17066;DHT22;23120;52.336;21.182;2022-12-29T14:15:20;7.10;94.20
17066;DHT22;23120;52.336;21.182;2022-12-29T14:18:09;7.10;94.10
17066;DHT22;23120;52.336;21.182;2022-12-29T14:20:38;7.10;94.20
17066;DHT22;23120;52.336;21.182;2022-12-29T14:23:17;7.10;94.20
17066;DHT22;23120;52.336;21.182;2022-12-29T14:26:00;7.10;94.30
17066;DHT22;23120;52.336;21.182;2022-12-29T14:28:28;7.10;94.30
17066;DHT22;23120;52.336;21.182;2022-12-29T14:30:56;7.10;94.30
17066;DHT22;23120;52.336;21.182;2022-12-29T14:33:25;7.10;94.40
17066;DHT22;23120;52.336;21.182;2022-12-29T14:35:53;7.00;94.40
17066;DHT22;23120;52.336;21.182;2022-12-29T14:38:26;7.00;94.30
17066;DHT22;23120;52.336;21.182;2022-12-29T14:41:26;7.10;94.40
17066;DHT22;23120;52.336;21.182;2022-12-29T14:44:00;7.10;94.30
17066;DHT22;23120;52.336;21.182;2022-12-29T14:46:46;7.10;94.30
17066;DHT22;23120;52.336;21.182;2022-12-29T14:49:17;7.10;94.20
17066;DHT22;23120;52.336;21.182;2022-12-29T14:51:46;7.10;94.10
17066;DHT22;23120;52.336;21.182;2022-12-29T14:54:41;7.10;94.20
17066;DHT22;23120;52.336;21.182;2022-12-29T14:57:15;7.10;94.30
17066;DHT22;23120;52.336;21.182;2022-12-29T14:59:46;7.10;94.30
17066;DHT22;23120;52.336;21.182;2022-12-29T15:02:16;7.10;94.30
17066;DHT22;23120;52.336;21.182;2022-12-29T15:04:46;7.10;94.30
17066;DHT22;23120;52.336;21.182;2022-12-29T15:07:14;7.00;94.30
17066;DHT22;23120;52.336;21.182;2022-12-29T15:09:44;7.00;94.40
17066;DHT22;23120;52.336;21.182;2022-12-29T15:12:21;7.00;94.50
17066;DHT22;23120;52.336;21.182;2022-12-29T15:14:51;7.00;94.50
17066;DHT22;23120;52.336;21.182;2022-12-29T15:17:26;7.00;94.60
17066;DHT22;23120;52.336;21.182;2022-12-29T15:19:55;7.00;94.70
17066;DHT22;23120;52.336;21.182;2022-12-29T15:22:22;7.00;94.60
17066;DHT22;23120;52.336;21.182;2022-12-29T15:24:50;7.00;94.60
17066;DHT22;23120;52.336;21.182;2022-12-29T15:27:21;7.00;94.50
17066;DHT22;23120;52.336;21.182;2022-12-29T15:29:56;7.00;94.60
17066;DHT22;23120;52.336;21.182;2022-12-29T15:32:25;7.00;94.60
17066;DHT22;23120;52.336;21.182;2022-12-29T15:34:54;6.90;94.60
17066;DHT22;23120;52.336;21.182;2022-12-29T15:37:23;6.90;94.60
17066;DHT22;23120;52.336;21.182;2022-12-29T15:39:51;6.90;94.60
17066;DHT22;23120;52.336;21.182;2022-12-29T15:42:45;6.90;94.60
17066;DHT22;23120;52.336;21.182;2022-12-29T15:45:17;6.90;94.60
17066;DHT22;23120;52.336;21.182;2022-12-29T15:47:45;6.80;94.70
17066;DHT22;23120;52.336;21.182;2022-12-29T15:50:20;6.90;94.60
17066;DHT22;23120;52.336;21.182;2022-12-29T15:52:48;6.80;94.50
17066;DHT22;23120;52.336;21.182;2022-12-29T15:55:25;6.80;94.50
17066;DHT22;23120;52.336;21.182;2022-12-29T15:57:57;6.80;94.50
17066;DHT22;23120;52.336;21.182;2022-12-29T16:00:26;6.80;94.40
17066;DHT22;23120;52.336;21.182;2022-12-29T16:02:54;6.80;94.80
17066;DHT22;23120;52.336;21.182;2022-12-29T16:05:22;6.80;94.50
17066;DHT22;23120;52.336;21.182;2022-12-29T16:07:53;6.80;94.50